sensor_id;sensor_type;location;lat;lon;timestamp;pressure;altitude;pressure_sealevel;temperature;humidity
20023;BME280;10172;42.054;24.546;2022-10-17T00:01:42;99491.88;;;9.29;100.00
20023;BME280;10172;42.054;24.546;2022-10-17T00:04:07;99495.31;;;9.11;100.00
20023;BME280;10172;42.054;24.546;2022-10-17T00:06:33;99494.69;;;9.26;100.00
20023;BME280;10172;42.054;24.546;2022-10-17T00:08:58;99502.31;;;9.34;100.00
20023;BME280;10172;42.054;24.546;2022-10-17T00:11:25;99514.94;;;8.87;100.00
20023;BME280;10172;42.054;24.546;2022-10-17T00:13:53;99503.75;;;8.79;100.00
20023;BME280;10172;42.054;24.546;2022-10-17T00:16:27;99520.50;;;8.14;100.00
20023;BME280;10172;42.054;24.546;2022-10-17T00:18:53;99507.69;;;8.25;100.00
20023;BME280;10172;42.054;24.546;2022-10-17T00:21:19;99509.59;;;9.09;100.00
20023;BME280;10172;42.054;24.546;2022-10-17T00:23:45;99511.84;;;9.97;100.00
20023;BME280;10172;42.054;24.546;2022-10-17T00:26:11;99510.00;;;10.55;100.00
20023;BME280;10172;42.054;24.546;2022-10-17T00:28:37;99506.03;;;10.07;100.00
20023;BME280;10172;42.054;24.546;2022-10-17T00:31:05;99518.09;;;9.57;100.00
20023;BME280;10172;42.054;24.546;2022-10-17T00:33:32;99516.84;;;9.45;100.00
20023;BME280;10172;42.054;24.546;2022-10-17T00:36:05;99531.09;;;9.23;100.00
20023;BME280;10172;42.054;24.546;2022-10-17T00:38:31;99512.13;;;9.12;100.00
20023;BME280;10172;42.054;24.546;2022-10-17T00:40:57;99512.19;;;9.30;100.00
20023;BME280;10172;42.054;24.546;2022-10-17T00:43:22;99528.53;;;9.41;100.00
20023;BME280;10172;42.054;24.546;2022-10-17T00:45:48;99529.31;;;8.81;100.00
20023;BME280;10172;42.054;24.546;2022-10-17T00:48:14;99518.53;;;8.86;100.00
20023;BME280;10172;42.054;24.546;2022-10-17T00:50:42;99521.75;;;8.51;100.00
20023;BME280;10172;42.054;24.546;2022-10-17T00:53:09;99512.22;;;8.22;100.00
20023;BME280;10172;42.054;24.546;2022-10-17T00:55:38;99522.78;;;8.47;100.00
20023;BME280;10172;42.054;24.546;2022-10-17T00:58:06;99514.13;;;8.85;100.00
20023;BME280;10172;42.054;24.546;2022-10-17T01:00:32;99514.91;;;8.67;100.00
20023;BME280;10172;42.054;24.546;2022-10-17T01:02:58;99513.72;;;9.16;100.00
20023;BME280;10172;42.054;24.546;2022-10-17T01:05:23;99512.59;;;8.36;100.00
20023;BME280;10172;42.054;24.546;2022-10-17T01:07:51;99508.72;;;8.45;100.00
20023;BME280;10172;42.054;24.546;2022-10-17T01:10:18;99515.47;;;8.30;100.00
20023;BME280;10172;42.054;24.546;2022-10-17T01:12:53;99535.38;;;8.85;100.00
20023;BME280;10172;42.054;24.546;2022-10-17T01:15:39;99535.25;;;8.88;100.00
20023;BME280;10172;42.054;24.546;2022-10-17T01:18:19;99533.00;;;8.99;100.00
20023;BME280;10172;42.054;24.546;2022-10-17T01:26:55;99533.78;;;8.81;100.00
20023;BME280;10172;42.054;24.546;2022-10-17T01:32:19;99524.75;;;8.18;100.00
20023;BME280;10172;42.054;24.546;2022-10-17T01:34:56;99515.34;;;8.56;100.00
20023;BME280;10172;42.054;24.546;2022-10-17T01:37:33;99531.69;;;8.89;100.00
20023;BME280;10172;42.054;24.546;2022-10-17T01:40:22;99530.94;;;8.64;100.00
20023;BME280;10172;42.054;24.546;2022-10-17T01:43:02;99529.47;;;8.78;100.00
20023;BME280;10172;42.054;24.546;2022-10-17T01:45:54;99521.47;;;8.12;100.00
20023;BME280;10172;42.054;24.546;2022-10-17T01:48:26;99518.00;;;7.39;100.00
20023;BME280;10172;42.054;24.546;2022-10-17T01:51:00;99517.81;;;7.68;100.00
20023;BME280;10172;42.054;24.546;2022-10-17T01:53:37;99520.78;;;8.30;100.00
20023;BME280;10172;42.054;24.546;2022-10-17T01:56:07;99513.47;;;8.13;100.00
20023;BME280;10172;42.054;24.546;2022-10-17T01:58:40;99519.97;;;7.34;100.00
20023;BME280;10172;42.054;24.546;2022-10-17T02:01:08;99521.91;;;7.53;100.00
20023;BME280;10172;42.054;24.546;2022-10-17T02:03:37;99528.56;;;8.11;100.00
20023;BME280;10172;42.054;24.546;2022-10-17T02:06:05;99524.88;;;7.92;100.00
20023;BME280;10172;42.054;24.546;2022-10-17T02:08:46;99539.31;;;8.31;100.00
20023;BME280;10172;42.054;24.546;2022-10-17T02:11:24;99543.19;;;7.98;100.00
20023;BME280;10172;42.054;24.546;2022-10-17T02:14:19;99543.66;;;8.09;100.00
20023;BME280;10172;42.054;24.546;2022-10-17T02:27:48;99551.78;;;8.51;100.00
20023;BME280;10172;42.054;24.546;2022-10-17T02:33:14;99548.00;;;8.35;100.00
20023;BME280;10172;42.054;24.546;2022-10-17T02:35:46;99556.56;;;8.41;100.00
20023;BME280;10172;42.054;24.546;2022-10-17T02:38:14;99550.91;;;8.51;100.00
20023;BME280;10172;42.054;24.546;2022-10-17T02:40:41;99552.38;;;8.13;100.00
20023;BME280;10172;42.054;24.546;2022-10-17T02:43:07;99550.97;;;8.26;100.00
20023;BME280;10172;42.054;24.546;2022-10-17T02:45:33;99550.81;;;8.30;100.00
20023;BME280;10172;42.054;24.546;2022-10-17T02:48:27;99564.63;;;8.62;100.00
20023;BME280;10172;42.054;24.546;2022-10-17T02:51:08;99560.03;;;8.43;100.00
20023;BME280;10172;42.054;24.546;2022-10-17T02:56:17;99578.16;;;8.32;100.00
20023;BME280;10172;42.054;24.546;2022-10-17T02:58:47;99572.25;;;8.48;100.00
20023;BME280;10172;42.054;24.546;2022-10-17T03:01:15;99557.78;;;8.33;100.00
20023;BME280;10172;42.054;24.546;2022-10-17T03:03:41;99570.88;;;8.37;100.00
20023;BME280;10172;42.054;24.546;2022-10-17T03:06:06;99565.22;;;8.47;100.00
20023;BME280;10172;42.054;24.546;2022-10-17T03:08:32;99560.28;;;8.37;100.00
20023;BME280;10172;42.054;24.546;2022-10-17T03:10:57;99569.31;;;7.84;100.00
20023;BME280;10172;42.054;24.546;2022-10-17T03:13:23;99569.31;;;7.84;100.00
20023;BME280;10172;42.054;24.546;2022-10-17T03:15:48;99573.16;;;8.70;100.00
20023;BME280;10172;42.054;24.546;2022-10-17T03:18:14;99578.56;;;9.30;100.00
20023;BME280;10172;42.054;24.546;2022-10-17T03:20:39;99579.78;;;9.63;100.00
20023;BME280;10172;42.054;24.546;2022-10-17T03:23:04;99593.28;;;9.17;100.00
20023;BME280;10172;42.054;24.546;2022-10-17T03:25:30;99588.50;;;8.83;100.00
20023;BME280;10172;42.054;24.546;2022-10-17T03:27:59;99587.91;;;9.60;100.00
20023;BME280;10172;42.054;24.546;2022-10-17T03:30:26;99594.34;;;8.48;100.00
20023;BME280;10172;42.054;24.546;2022-10-17T03:32:51;99585.56;;;9.11;100.00
20023;BME280;10172;42.054;24.546;2022-10-17T03:35:16;99577.50;;;8.71;100.00
20023;BME280;10172;42.054;24.546;2022-10-17T03:37:42;99588.94;;;8.73;100.00
20023;BME280;10172;42.054;24.546;2022-10-17T03:40:08;99586.72;;;8.84;100.00
20023;BME280;10172;42.054;24.546;2022-10-17T03:42:33;99589.53;;;8.58;100.00
20023;BME280;10172;42.054;24.546;2022-10-17T03:44:58;99609.69;;;7.67;100.00
20023;BME280;10172;42.054;24.546;2022-10-17T03:47:24;99605.72;;;7.79;100.00
20023;BME280;10172;42.054;24.546;2022-10-17T03:49:49;99596.09;;;8.01;100.00
20023;BME280;10172;42.054;24.546;2022-10-17T03:52:17;99602.75;;;8.59;100.00
20023;BME280;10172;42.054;24.546;2022-10-17T03:54:43;99611.38;;;9.29;100.00
20023;BME280;10172;42.054;24.546;2022-10-17T03:57:08;99601.34;;;8.49;100.00
20023;BME280;10172;42.054;24.546;2022-10-17T03:59:34;99604.50;;;7.89;100.00
20023;BME280;10172;42.054;24.546;2022-10-17T04:01:59;99613.66;;;7.79;100.00
20023;BME280;10172;42.054;24.546;2022-10-17T04:04:25;99603.47;;;7.68;100.00
20023;BME280;10172;42.054;24.546;2022-10-17T04:06:50;99599.59;;;8.25;100.00
20023;BME280;10172;42.054;24.546;2022-10-17T04:09:15;99589.34;;;7.68;100.00
20023;BME280;10172;42.054;24.546;2022-10-17T04:11:41;99595.19;;;7.77;100.00
20023;BME280;10172;42.054;24.546;2022-10-17T04:14:06;99584.97;;;8.15;100.00
20023;BME280;10172;42.054;24.546;2022-10-17T04:16:32;99617.75;;;7.64;100.00
20023;BME280;10172;42.054;24.546;2022-10-17T04:18:58;99607.16;;;7.64;100.00
20023;BME280;10172;42.054;24.546;2022-10-17T04:21:25;99608.47;;;7.76;100.00
20023;BME280;10172;42.054;24.546;2022-10-17T04:23:55;99605.00;;;7.99;100.00
20023;BME280;10172;42.054;24.546;2022-10-17T04:26:21;99607.28;;;7.35;100.00
20023;BME280;10172;42.054;24.546;2022-10-17T04:28:47;99594.38;;;7.00;100.00
20023;BME280;10172;42.054;24.546;2022-10-17T04:31:13;99598.09;;;6.65;100.00
20023;BME280;10172;42.054;24.546;2022-10-17T04:33:39;99621.13;;;7.43;100.00
20023;BME280;10172;42.054;24.546;2022-10-17T04:36:08;99614.91;;;7.18;100.00
20023;BME280;10172;42.054;24.546;2022-10-17T04:38:34;99619.53;;;7.89;100.00
20023;BME280;10172;42.054;24.546;2022-10-17T04:41:02;99613.66;;;7.79;100.00
20023;BME280;10172;42.054;24.546;2022-10-17T04:43:29;99614.31;;;7.61;100.00
20023;BME280;10172;42.054;24.546;2022-10-17T04:45:57;99620.59;;;7.83;100.00
20023;BME280;10172;42.054;24.546;2022-10-17T04:48:22;99618.22;;;7.51;100.00
20023;BME280;10172;42.054;24.546;2022-10-17T04:50:54;99634.09;;;7.24;100.00
20023;BME280;10172;42.054;24.546;2022-10-17T04:53:21;99627.06;;;6.97;100.00
20023;BME280;10172;42.054;24.546;2022-10-17T04:55:46;99622.25;;;7.10;100.00
20023;BME280;10172;42.054;24.546;2022-10-17T04:58:12;99623.72;;;7.45;100.00
20023;BME280;10172;42.054;24.546;2022-10-17T05:00:37;99630.28;;;7.33;100.00
20023;BME280;10172;42.054;24.546;2022-10-17T05:03:03;99643.44;;;7.08;100.00
20023;BME280;10172;42.054;24.546;2022-10-17T05:05:29;99650.25;;;6.89;100.00
20023;BME280;10172;42.054;24.546;2022-10-17T05:07:54;99648.53;;;7.14;100.00
20023;BME280;10172;42.054;24.546;2022-10-17T05:10:20;99642.44;;;7.65;100.00
20023;BME280;10172;42.054;24.546;2022-10-17T05:12:46;99654.72;;;7.41;100.00
20023;BME280;10172;42.054;24.546;2022-10-17T05:15:12;99639.09;;;7.34;100.00
20023;BME280;10172;42.054;24.546;2022-10-17T05:17:38;99662.53;;;7.46;100.00
20023;BME280;10172;42.054;24.546;2022-10-17T05:20:04;99652.59;;;7.77;100.00
20023;BME280;10172;42.054;24.546;2022-10-17T05:22:29;99657.19;;;7.72;100.00
20023;BME280;10172;42.054;24.546;2022-10-17T05:24:55;99653.09;;;8.37;100.00
20023;BME280;10172;42.054;24.546;2022-10-17T05:27:21;99664.16;;;8.49;100.00
20023;BME280;10172;42.054;24.546;2022-10-17T05:29:46;99683.00;;;9.09;100.00
20023;BME280;10172;42.054;24.546;2022-10-17T05:32:11;99673.53;;;9.87;100.00
20023;BME280;10172;42.054;24.546;2022-10-17T05:34:37;99677.56;;;10.17;100.00
20023;BME280;10172;42.054;24.546;2022-10-17T05:37:03;99675.88;;;10.35;100.00
20023;BME280;10172;42.054;24.546;2022-10-17T05:39:28;99695.78;;;9.85;100.00
20023;BME280;10172;42.054;24.546;2022-10-17T05:41:53;99686.22;;;10.41;100.00
20023;BME280;10172;42.054;24.546;2022-10-17T05:44:19;99696.22;;;10.36;100.00
20023;BME280;10172;42.054;24.546;2022-10-17T05:46:47;99698.59;;;9.60;100.00
20023;BME280;10172;42.054;24.546;2022-10-17T05:49:12;99706.50;;;10.44;100.00
20023;BME280;10172;42.054;24.546;2022-10-17T05:51:38;99715.59;;;10.78;100.00
20023;BME280;10172;42.054;24.546;2022-10-17T05:54:06;99694.84;;;10.85;100.00
20023;BME280;10172;42.054;24.546;2022-10-17T05:56:33;99715.88;;;10.91;100.00
20023;BME280;10172;42.054;24.546;2022-10-17T05:58:58;99690.13;;;10.92;100.00
20023;BME280;10172;42.054;24.546;2022-10-17T06:01:24;99706.72;;;11.15;98.96
20023;BME280;10172;42.054;24.546;2022-10-17T06:03:49;99719.44;;;11.27;97.56
20023;BME280;10172;42.054;24.546;2022-10-17T06:06:15;99727.28;;;11.30;97.68
20023;BME280;10172;42.054;24.546;2022-10-17T06:08:41;99729.63;;;11.38;97.45
20023;BME280;10172;42.054;24.546;2022-10-17T06:11:07;99733.34;;;11.34;96.99
20023;BME280;10172;42.054;24.546;2022-10-17T06:13:32;99725.13;;;11.38;96.08
20023;BME280;10172;42.054;24.546;2022-10-17T06:15:58;99741.13;;;11.20;97.37
20023;BME280;10172;42.054;24.546;2022-10-17T06:18:23;99726.13;;;11.36;97.60
20023;BME280;10172;42.054;24.546;2022-10-17T06:20:50;99737.75;;;11.71;95.06
20023;BME280;10172;42.054;24.546;2022-10-17T06:23:16;99749.19;;;11.91;92.96
20023;BME280;10172;42.054;24.546;2022-10-17T06:25:42;99747.72;;;11.67;92.85
20023;BME280;10172;42.054;24.546;2022-10-17T06:28:08;99759.13;;;11.88;92.41
20023;BME280;10172;42.054;24.546;2022-10-17T06:30:37;99745.75;;;11.35;94.47
20023;BME280;10172;42.054;24.546;2022-10-17T06:33:03;99737.81;;;11.33;95.39
20023;BME280;10172;42.054;24.546;2022-10-17T06:35:30;99750.91;;;11.19;97.16
20023;BME280;10172;42.054;24.546;2022-10-17T06:37:58;99753.78;;;11.33;96.72
20023;BME280;10172;42.054;24.546;2022-10-17T06:40:24;99754.50;;;11.56;94.22
20023;BME280;10172;42.054;24.546;2022-10-17T06:42:49;99738.22;;;11.62;94.41
20023;BME280;10172;42.054;24.546;2022-10-17T06:45:15;99752.16;;;11.85;92.86
20023;BME280;10172;42.054;24.546;2022-10-17T06:47:40;99771.16;;;12.31;91.00
20023;BME280;10172;42.054;24.546;2022-10-17T06:50:07;99766.19;;;12.75;88.29
20023;BME280;10172;42.054;24.546;2022-10-17T06:52:33;99756.38;;;13.08;86.30
20023;BME280;10172;42.054;24.546;2022-10-17T06:54:58;99763.22;;;13.13;84.88
20023;BME280;10172;42.054;24.546;2022-10-17T06:57:23;99757.44;;;13.04;85.80
20023;BME280;10172;42.054;24.546;2022-10-17T06:59:49;99767.34;;;13.19;85.10
20023;BME280;10172;42.054;24.546;2022-10-17T07:02:14;99767.09;;;13.06;85.54
20023;BME280;10172;42.054;24.546;2022-10-17T07:04:40;99760.66;;;13.43;83.23
20023;BME280;10172;42.054;24.546;2022-10-17T07:07:05;99765.00;;;13.13;83.29
20023;BME280;10172;42.054;24.546;2022-10-17T07:09:31;99767.44;;;13.33;83.72
20023;BME280;10172;42.054;24.546;2022-10-17T07:11:57;99763.56;;;13.70;81.26
20023;BME280;10172;42.054;24.546;2022-10-17T07:14:23;99766.91;;;13.58;80.33
20023;BME280;10172;42.054;24.546;2022-10-17T07:16:56;99775.13;;;13.70;80.73
20023;BME280;10172;42.054;24.546;2022-10-17T07:19:21;99767.69;;;13.60;81.73
20023;BME280;10172;42.054;24.546;2022-10-17T07:21:47;99782.22;;;14.01;79.96
20023;BME280;10172;42.054;24.546;2022-10-17T07:24:13;99791.66;;;14.08;79.07
20023;BME280;10172;42.054;24.546;2022-10-17T07:26:38;99789.38;;;14.16;78.33
20023;BME280;10172;42.054;24.546;2022-10-17T07:29:04;99782.53;;;14.26;77.33
20023;BME280;10172;42.054;24.546;2022-10-17T07:31:30;99794.66;;;14.48;77.22
20023;BME280;10172;42.054;24.546;2022-10-17T07:33:58;99781.91;;;14.95;75.46
20023;BME280;10172;42.054;24.546;2022-10-17T07:36:24;99800.88;;;15.06;74.75
20023;BME280;10172;42.054;24.546;2022-10-17T07:38:50;99784.84;;;14.76;75.44
20023;BME280;10172;42.054;24.546;2022-10-17T07:41:15;99795.31;;;14.95;75.46
20023;BME280;10172;42.054;24.546;2022-10-17T07:43:41;99793.88;;;15.18;74.94
20023;BME280;10172;42.054;24.546;2022-10-17T07:46:07;99782.50;;;15.00;75.12
20023;BME280;10172;42.054;24.546;2022-10-17T07:48:33;99796.84;;;14.85;75.88
20023;BME280;10172;42.054;24.546;2022-10-17T07:51:04;99792.63;;;15.09;74.73
20023;BME280;10172;42.054;24.546;2022-10-17T07:53:30;99791.22;;;15.18;74.80
20023;BME280;10172;42.054;24.546;2022-10-17T07:55:55;99785.28;;;15.27;72.54
20023;BME280;10172;42.054;24.546;2022-10-17T07:58:20;99780.38;;;15.33;72.98
20023;BME280;10172;42.054;24.546;2022-10-17T08:00:46;99778.63;;;15.61;71.74
20023;BME280;10172;42.054;24.546;2022-10-17T08:03:13;99780.53;;;15.73;70.76
20023;BME280;10172;42.054;24.546;2022-10-17T08:05:38;99775.72;;;15.78;71.44
20023;BME280;10172;42.054;24.546;2022-10-17T08:08:04;99781.88;;;15.66;69.15
20023;BME280;10172;42.054;24.546;2022-10-17T08:10:29;99765.06;;;15.49;72.47
20023;BME280;10172;42.054;24.546;2022-10-17T08:12:56;99778.50;;;15.76;69.99
20023;BME280;10172;42.054;24.546;2022-10-17T08:15:22;99775.63;;;15.79;69.79
20023;BME280;10172;42.054;24.546;2022-10-17T08:17:48;99767.97;;;16.27;67.67
20023;BME280;10172;42.054;24.546;2022-10-17T08:20:14;99780.84;;;16.22;66.22
20023;BME280;10172;42.054;24.546;2022-10-17T08:22:39;99769.97;;;16.23;66.25
20023;BME280;10172;42.054;24.546;2022-10-17T08:25:06;99783.31;;;16.77;66.33
20023;BME280;10172;42.054;24.546;2022-10-17T08:27:35;99783.53;;;16.99;65.50
20023;BME280;10172;42.054;24.546;2022-10-17T08:30:00;99767.94;;;16.53;66.29
20023;BME280;10172;42.054;24.546;2022-10-17T08:32:27;99784.59;;;17.09;65.95
20023;BME280;10172;42.054;24.546;2022-10-17T08:34:54;99777.84;;;17.77;63.34
20023;BME280;10172;42.054;24.546;2022-10-17T08:37:20;99781.19;;;17.81;62.69
20023;BME280;10172;42.054;24.546;2022-10-17T08:39:45;99773.91;;;17.70;62.72
20023;BME280;10172;42.054;24.546;2022-10-17T08:44:55;99770.19;;;17.22;64.98
20023;BME280;10172;42.054;24.546;2022-10-17T08:47:37;99780.25;;;17.44;63.85
20023;BME280;10172;42.054;24.546;2022-10-17T08:50:14;99776.47;;;17.47;63.90
20023;BME280;10172;42.054;24.546;2022-10-17T08:52:47;99774.97;;;17.68;61.33
20023;BME280;10172;42.054;24.546;2022-10-17T08:57:46;99768.59;;;16.82;63.70
20023;BME280;10172;42.054;24.546;2022-10-17T09:00:16;99769.72;;;17.41;63.83
20023;BME280;10172;42.054;24.546;2022-10-17T09:02:53;99773.31;;;17.04;62.60
20023;BME280;10172;42.054;24.546;2022-10-17T09:19:09;99757.50;;;19.35;54.53
20023;BME280;10172;42.054;24.546;2022-10-17T09:21:46;99760.50;;;18.64;56.30
20023;BME280;10172;42.054;24.546;2022-10-17T09:24:16;99762.28;;;18.52;56.75
20023;BME280;10172;42.054;24.546;2022-10-17T09:26:44;99765.78;;;18.65;57.75
20023;BME280;10172;42.054;24.546;2022-10-17T09:29:24;99757.63;;;19.44;56.62
20023;BME280;10172;42.054;24.546;2022-10-17T09:32:13;99764.88;;;19.10;54.45
20023;BME280;10172;42.054;24.546;2022-10-17T09:34:42;99760.94;;;19.15;54.09
20023;BME280;10172;42.054;24.546;2022-10-17T09:37:15;99744.50;;;19.29;55.28
20023;BME280;10172;42.054;24.546;2022-10-17T09:39:42;99751.09;;;19.36;54.35
20023;BME280;10172;42.054;24.546;2022-10-17T09:42:19;99751.19;;;18.44;57.20
20023;BME280;10172;42.054;24.546;2022-10-17T09:45:21;99749.91;;;19.29;56.52
20023;BME280;10172;42.054;24.546;2022-10-17T09:48:07;99747.69;;;18.20;57.38
20023;BME280;10172;42.054;24.546;2022-10-17T09:50:35;99748.69;;;19.10;57.38
20023;BME280;10172;42.054;24.546;2022-10-17T09:53:09;99739.44;;;19.68;54.44
20023;BME280;10172;42.054;24.546;2022-10-17T09:55:41;99729.25;;;19.72;53.73
20023;BME280;10172;42.054;24.546;2022-10-17T09:58:08;99733.81;;;19.60;53.30
20023;BME280;10172;42.054;24.546;2022-10-17T10:00:38;99719.63;;;19.90;52.23
20023;BME280;10172;42.054;24.546;2022-10-17T10:03:30;99729.91;;;20.60;51.69
20023;BME280;10172;42.054;24.546;2022-10-17T10:06:04;99722.28;;;20.01;52.18
20023;BME280;10172;42.054;24.546;2022-10-17T10:08:36;99725.38;;;20.28;50.87
20023;BME280;10172;42.054;24.546;2022-10-17T10:11:12;99705.47;;;20.71;49.60
20023;BME280;10172;42.054;24.546;2022-10-17T10:13:38;99705.63;;;20.28;49.65
20023;BME280;10172;42.054;24.546;2022-10-17T10:16:46;99711.81;;;20.40;46.39
20023;BME280;10172;42.054;24.546;2022-10-17T10:19:00;99706.06;;;20.33;44.61
20023;BME280;10172;42.054;24.546;2022-10-17T10:21:26;99696.06;;;19.92;44.80
20023;BME280;10172;42.054;24.546;2022-10-17T10:26:25;99673.84;;;19.57;40.12
20023;BME280;10172;42.054;24.546;2022-10-17T10:28:56;99687.00;;;20.14;40.39
20023;BME280;10172;42.054;24.546;2022-10-17T10:31:37;99699.63;;;20.24;37.89
20023;BME280;10172;42.054;24.546;2022-10-17T10:34:20;99689.03;;;20.33;35.92
20023;BME280;10172;42.054;24.546;2022-10-17T10:36:55;99666.91;;;20.27;35.92
20023;BME280;10172;42.054;24.546;2022-10-17T10:39:30;99689.28;;;20.30;35.68
20023;BME280;10172;42.054;24.546;2022-10-17T10:41:56;99672.25;;;20.39;34.04
20023;BME280;10172;42.054;24.546;2022-10-17T10:44:24;99679.91;;;20.34;33.94
20023;BME280;10172;42.054;24.546;2022-10-17T10:49:40;99680.16;;;20.72;33.93
20023;BME280;10172;42.054;24.546;2022-10-17T10:52:07;99678.34;;;20.82;33.13
20023;BME280;10172;42.054;24.546;2022-10-17T10:54:38;99675.25;;;20.86;32.62
20023;BME280;10172;42.054;24.546;2022-10-17T10:57:11;99676.47;;;20.73;32.80
20023;BME280;10172;42.054;24.546;2022-10-17T11:00:05;99669.25;;;20.83;33.13
20023;BME280;10172;42.054;24.546;2022-10-17T11:02:48;99671.81;;;20.34;32.97
20023;BME280;10172;42.054;24.546;2022-10-17T11:08:15;99664.75;;;21.23;33.01
20023;BME280;10172;42.054;24.546;2022-10-17T11:10:48;99674.19;;;21.38;31.80
20023;BME280;10172;42.054;24.546;2022-10-17T11:13:27;99675.31;;;21.26;31.61
20023;BME280;10172;42.054;24.546;2022-10-17T11:16:19;99663.28;;;20.59;31.44
20023;BME280;10172;42.054;24.546;2022-10-17T11:18:54;99662.19;;;21.22;32.30
20023;BME280;10172;42.054;24.546;2022-10-17T11:21:42;99656.84;;;21.41;29.49
20023;BME280;10172;42.054;24.546;2022-10-17T11:24:20;99649.53;;;20.92;28.98
20023;BME280;10172;42.054;24.546;2022-10-17T11:26:58;99643.25;;;20.92;28.84
20023;BME280;10172;42.054;24.546;2022-10-17T11:29:30;99644.22;;;20.81;29.62
20023;BME280;10172;42.054;24.546;2022-10-17T11:32:07;99649.44;;;21.03;29.56
20023;BME280;10172;42.054;24.546;2022-10-17T11:34:40;99632.97;;;21.25;28.40
20023;BME280;10172;42.054;24.546;2022-10-17T11:37:21;99632.66;;;21.09;28.95
20023;BME280;10172;42.054;24.546;2022-10-17T11:39:52;99630.56;;;21.22;28.62
20023;BME280;10172;42.054;24.546;2022-10-17T11:42:38;99627.75;;;21.43;28.23
20023;BME280;10172;42.054;24.546;2022-10-17T11:45:12;99632.03;;;21.45;27.94
20023;BME280;10172;42.054;24.546;2022-10-17T11:47:52;99629.22;;;21.57;27.37
20023;BME280;10172;42.054;24.546;2022-10-17T11:53:38;99627.88;;;21.41;28.33
20023;BME280;10172;42.054;24.546;2022-10-17T11:55:41;99624.78;;;21.84;28.28
20023;BME280;10172;42.054;24.546;2022-10-17T11:58:28;99624.34;;;21.41;27.79
20023;BME280;10172;42.054;24.546;2022-10-17T12:07:09;99612.09;;;21.85;27.98
20023;BME280;10172;42.054;24.546;2022-10-17T12:12:24;99618.41;;;22.04;27.93
20023;BME280;10172;42.054;24.546;2022-10-17T12:14:50;99619.97;;;21.88;28.63
20023;BME280;10172;42.054;24.546;2022-10-17T12:17:36;99616.13;;;22.00;28.17
20023;BME280;10172;42.054;24.546;2022-10-17T12:22:49;99618.53;;;21.84;28.45
20023;BME280;10172;42.054;24.546;2022-10-17T12:25:29;99615.28;;;21.99;29.00
20023;BME280;10172;42.054;24.546;2022-10-17T12:28:23;99611.28;;;22.13;28.98
20023;BME280;10172;42.054;24.546;2022-10-17T12:30:59;99608.28;;;22.07;28.97
20023;BME280;10172;42.054;24.546;2022-10-17T12:33:36;99607.81;;;22.30;29.54
20023;BME280;10172;42.054;24.546;2022-10-17T12:38:51;99600.31;;;22.71;29.51
20023;BME280;10172;42.054;24.546;2022-10-17T12:54:37;99601.84;;;21.98;31.08
20023;BME280;10172;42.054;24.546;2022-10-17T12:57:16;99604.13;;;21.64;31.33
20023;BME280;10172;42.054;24.546;2022-10-17T12:59:44;99598.13;;;21.61;31.13
20023;BME280;10172;42.054;24.546;2022-10-17T13:02:17;99604.25;;;21.82;31.88
20023;BME280;10172;42.054;24.546;2022-10-17T13:04:44;99605.84;;;22.13;31.55
20023;BME280;10172;42.054;24.546;2022-10-17T13:07:20;99590.47;;;21.94;31.67
20023;BME280;10172;42.054;24.546;2022-10-17T13:09:47;99601.84;;;22.17;31.88
20023;BME280;10172;42.054;24.546;2022-10-17T13:12:18;99607.50;;;22.33;31.11
20023;BME280;10172;42.054;24.546;2022-10-17T13:14:45;99595.16;;;22.02;31.49
20023;BME280;10172;42.054;24.546;2022-10-17T13:17:28;99610.88;;;21.89;31.89
20023;BME280;10172;42.054;24.546;2022-10-17T13:19:56;99614.13;;;21.92;31.79
20023;BME280;10172;42.054;24.546;2022-10-17T13:22:22;99602.44;;;22.11;32.12
20023;BME280;10172;42.054;24.546;2022-10-17T13:24:50;99601.78;;;22.36;32.07
20023;BME280;10172;42.054;24.546;2022-10-17T13:27:30;99605.16;;;21.92;32.65
20023;BME280;10172;42.054;24.546;2022-10-17T13:29:58;99616.09;;;22.29;32.55
20023;BME280;10172;42.054;24.546;2022-10-17T13:32:25;99597.97;;;22.29;32.49
20023;BME280;10172;42.054;24.546;2022-10-17T13:35:27;99601.88;;;22.08;32.67
20023;BME280;10172;42.054;24.546;2022-10-17T13:37:54;99594.31;;;21.92;32.94
20023;BME280;10172;42.054;24.546;2022-10-17T13:40:27;99607.56;;;22.04;32.87
20023;BME280;10172;42.054;24.546;2022-10-17T13:42:55;99603.00;;;21.95;32.62
20023;BME280;10172;42.054;24.546;2022-10-17T13:45:32;99613.56;;;21.89;33.31
20023;BME280;10172;42.054;24.546;2022-10-17T13:48:03;99598.59;;;21.94;34.07
20023;BME280;10172;42.054;24.546;2022-10-17T13:50:36;99596.66;;;22.33;33.33
20023;BME280;10172;42.054;24.546;2022-10-17T13:53:15;99597.31;;;22.08;34.16
20023;BME280;10172;42.054;24.546;2022-10-17T13:58:16;99599.25;;;22.25;34.80
20023;BME280;10172;42.054;24.546;2022-10-17T14:00:46;99596.03;;;22.02;34.56
20023;BME280;10172;42.054;24.546;2022-10-17T14:03:13;99591.56;;;22.30;34.54
20023;BME280;10172;42.054;24.546;2022-10-17T14:06:03;99596.56;;;22.06;34.75
20023;BME280;10172;42.054;24.546;2022-10-17T14:08:30;99603.28;;;21.83;34.98
20023;BME280;10172;42.054;24.546;2022-10-17T14:10:57;99595.00;;;22.13;35.10
20023;BME280;10172;42.054;24.546;2022-10-17T14:13:26;99597.16;;;22.19;34.70
20023;BME280;10172;42.054;24.546;2022-10-17T14:15:55;99601.28;;;22.14;34.92
20023;BME280;10172;42.054;24.546;2022-10-17T14:18:28;99596.88;;;22.03;34.99
20023;BME280;10172;42.054;24.546;2022-10-17T14:20:55;99603.59;;;22.09;35.45
20023;BME280;10172;42.054;24.546;2022-10-17T14:23:41;99600.72;;;22.10;35.87
20023;BME280;10172;42.054;24.546;2022-10-17T14:28:39;99608.97;;;21.80;35.37
20023;BME280;10172;42.054;24.546;2022-10-17T14:33:44;99612.56;;;21.71;35.01
20023;BME280;10172;42.054;24.546;2022-10-17T14:36:10;99610.81;;;21.51;35.49